createdAt,value
2022-12-11T00:00:05.826Z,21.10
2022-12-11T00:05:10.978Z,29.00
2022-12-11T00:10:16.031Z,31.80
2022-12-11T00:15:20.874Z,27.30
2022-12-11T00:20:25.199Z,25.20
2022-12-11T00:25:29.568Z,22.80
2022-12-11T00:30:34.212Z,28.70
2022-12-11T00:35:46.491Z,28.40
2022-12-11T00:40:51.236Z,28.70
2022-12-11T00:45:55.793Z,22.50
2022-12-11T00:50:59.932Z,24.70
2022-12-11T00:56:10.674Z,28.20
2022-12-11T01:01:21.929Z,32.90
2022-12-11T01:06:28.950Z,30.20
2022-12-11T01:11:33.100Z,28.60
2022-12-11T01:16:36.792Z,33.90
2022-12-11T01:21:42.827Z,39.40
2022-12-11T01:26:47.433Z,40.30
2022-12-11T01:31:52.375Z,35.00
2022-12-11T01:36:56.443Z,35.70
2022-12-11T01:42:02.255Z,39.30
2022-12-11T01:47:06.541Z,40.70
2022-12-11T01:52:19.878Z,36.90
2022-12-11T01:57:24.224Z,34.60
2022-12-11T02:02:31.043Z,50.50
2022-12-11T02:07:42.994Z,36.00
2022-12-11T02:13:10.856Z,40.10
2022-12-11T02:18:25.889Z,30.30
2022-12-11T02:23:49.074Z,30.70
2022-12-11T02:29:09.803Z,32.10
2022-12-11T02:34:26.169Z,31.10
2022-12-11T02:39:33.198Z,30.40
2022-12-11T02:44:41.101Z,30.00
2022-12-11T02:54:55.810Z,30.90
2022-12-11T02:59:59.874Z,26.60
2022-12-11T03:05:05.988Z,32.50
2022-12-11T03:10:15.779Z,31.00
2022-12-11T03:15:24.648Z,33.50
2022-12-11T03:20:48.914Z,24.60
2022-12-11T03:26:14.789Z,29.50
2022-12-11T03:31:40.994Z,28.20
2022-12-11T03:36:48.766Z,31.40
2022-12-11T03:41:56.416Z,27.90
2022-12-11T03:52:10.173Z,23.70
2022-12-11T03:57:19.131Z,26.30
2022-12-11T04:02:24.699Z,36.80
2022-12-11T04:07:30.067Z,25.80
2022-12-11T04:12:36.204Z,34.50
2022-12-11T04:17:59.446Z,35.20
2022-12-11T04:23:40.933Z,28.80
2022-12-11T04:28:46.057Z,37.10
2022-12-11T04:33:50.992Z,31.00
2022-12-11T04:38:56.155Z,28.30
2022-12-11T04:44:00.543Z,31.40
2022-12-11T04:49:05.501Z,31.90
2022-12-11T04:54:10.878Z,35.50
2022-12-11T04:59:16.210Z,38.20
2022-12-11T05:04:21.204Z,45.60
2022-12-11T05:09:27.066Z,36.80
2022-12-11T05:14:33.145Z,37.10
2022-12-11T05:19:37.925Z,37.70
2022-12-11T05:24:42.561Z,33.20
2022-12-11T05:29:47.595Z,32.90
2022-12-11T05:34:52.595Z,33.80
2022-12-11T05:39:58.323Z,33.30
2022-12-11T05:45:04.715Z,34.70
2022-12-11T05:50:09.859Z,29.80
2022-12-11T05:55:15.223Z,24.20
2022-12-11T06:00:20.285Z,25.50
2022-12-11T06:05:25.386Z,23.10
2022-12-11T06:10:29.428Z,29.40
2022-12-11T06:15:34.331Z,22.20
2022-12-11T06:20:39.790Z,28.40
2022-12-11T06:25:43.127Z,26.40
2022-12-11T06:30:47.211Z,26.00
2022-12-11T06:35:52.110Z,20.00
2022-12-11T06:40:59.016Z,22.80
2022-12-11T06:46:06.595Z,23.00
2022-12-11T06:51:13.777Z,28.50
2022-12-11T06:56:20.171Z,30.50
2022-12-11T07:01:27.666Z,25.80
2022-12-11T07:06:31.302Z,24.90
2022-12-11T07:11:34.583Z,28.50
2022-12-11T07:16:38.922Z,25.50
2022-12-11T07:21:43.885Z,28.00
2022-12-11T07:26:48.351Z,20.00
2022-12-11T07:31:54.739Z,25.80
2022-12-11T07:36:58.480Z,26.10
2022-12-11T07:42:02.507Z,28.60
2022-12-11T07:47:05.948Z,24.20
2022-12-11T07:52:11.765Z,28.50
2022-12-11T07:57:16.305Z,23.00
2022-12-11T08:02:21.143Z,31.80
2022-12-11T08:07:25.324Z,26.30
2022-12-11T08:12:29.024Z,25.20
2022-12-11T08:17:38.248Z,21.20
2022-12-11T08:22:43.405Z,21.60
2022-12-11T08:27:47.602Z,24.60
2022-12-11T08:32:52.787Z,27.20
2022-12-11T08:37:56.441Z,24.40
2022-12-11T08:43:00.189Z,19.90
2022-12-11T08:48:04.918Z,26.20
2022-12-11T08:53:09.928Z,20.30
2022-12-11T08:58:15.397Z,21.40
2022-12-11T09:03:20.809Z,16.50
2022-12-11T09:08:24.312Z,21.50
2022-12-11T09:13:28.396Z,23.80
2022-12-11T09:18:32.741Z,21.00
2022-12-11T09:23:37.247Z,21.90
2022-12-11T09:28:46.309Z,22.90
2022-12-11T09:33:52.639Z,22.50
2022-12-11T09:38:56.627Z,25.50
2022-12-11T09:44:21.712Z,23.00
2022-12-11T09:49:27.935Z,17.40
2022-12-11T09:54:32.733Z,22.80
2022-12-11T10:00:04.739Z,20.40
2022-12-11T10:05:30.287Z,18.50
2022-12-11T10:10:58.050Z,19.00
2022-12-11T10:16:35.965Z,22.30
2022-12-11T10:21:42.101Z,17.90
2022-12-11T10:26:47.696Z,22.20
2022-12-11T10:32:00.185Z,22.00
2022-12-11T10:37:04.972Z,20.70
2022-12-11T10:42:20.929Z,18.20
2022-12-11T10:47:25.270Z,15.90
2022-12-11T10:52:39.166Z,19.20
2022-12-11T10:57:45.648Z,18.10
2022-12-11T11:02:50.486Z,18.20
2022-12-11T11:08:17.787Z,16.00
2022-12-11T11:13:28.345Z,9.50
2022-12-11T11:18:34.059Z,17.00
2022-12-11T11:23:45.470Z,19.00
2022-12-11T11:28:54.335Z,19.20
2022-12-11T11:34:00.952Z,23.20
2022-12-11T11:39:38.111Z,17.10
2022-12-11T11:44:48.298Z,23.00
2022-12-11T11:50:03.605Z,18.00
2022-12-11T11:55:21.750Z,17.30
2022-12-11T12:00:33.395Z,20.30
2022-12-11T12:06:03.080Z,19.60
2022-12-11T12:11:34.369Z,23.30
2022-12-11T12:16:53.902Z,29.90
2022-12-11T12:22:10.031Z,23.00
2022-12-11T12:27:55.617Z,28.00
2022-12-11T12:33:13.800Z,17.90
2022-12-11T12:38:23.605Z,18.70
2022-12-11T12:43:46.952Z,17.80
2022-12-11T12:48:55.646Z,21.80
2022-12-11T12:54:09.098Z,21.00
2022-12-11T12:59:24.936Z,24.60
2022-12-11T13:04:58.578Z,24.80
2022-12-11T13:10:25.973Z,27.90
2022-12-11T13:15:45.454Z,26.00
2022-12-11T13:20:52.685Z,25.50
2022-12-11T13:26:02.712Z,22.60
2022-12-11T13:31:15.932Z,23.30
2022-12-11T13:36:40.287Z,21.80
2022-12-11T13:41:52.230Z,32.50
2022-12-11T13:46:59.703Z,29.50
2022-12-11T13:52:05.728Z,22.00
2022-12-11T13:57:09.777Z,22.50
2022-12-11T14:02:24.013Z,20.80
2022-12-11T14:07:33.808Z,23.60
2022-12-11T14:12:37.920Z,24.30
2022-12-11T14:17:50.046Z,25.20
2022-12-11T14:23:34.430Z,27.90
2022-12-11T14:28:42.970Z,24.60
2022-12-11T14:33:54.137Z,27.10
2022-12-11T14:39:05.354Z,25.90
2022-12-11T14:44:16.387Z,23.50
2022-12-11T14:49:35.124Z,23.30
2022-12-11T14:54:43.621Z,26.80
2022-12-11T14:59:50.305Z,19.90
2022-12-11T15:05:18.709Z,24.60
2022-12-11T15:15:47.212Z,19.70
2022-12-11T15:20:56.724Z,27.20
2022-12-11T15:26:02.546Z,23.70
2022-12-11T15:31:22.596Z,32.40
2022-12-11T15:36:36.900Z,23.00
2022-12-11T15:41:42.657Z,15.20
2022-12-11T15:46:46.810Z,18.90
2022-12-11T15:51:51.104Z,19.80
2022-12-11T15:56:55.881Z,23.10
2022-12-11T16:02:00.499Z,20.00
2022-12-11T16:07:16.005Z,18.70
2022-12-11T16:12:20.425Z,24.80
2022-12-11T16:17:25.407Z,21.40
2022-12-11T16:22:30.251Z,21.80
2022-12-11T16:27:34.089Z,26.40
2022-12-11T16:32:40.967Z,25.50
2022-12-11T16:37:48.822Z,26.50
2022-12-11T16:42:55.495Z,38.40
2022-12-11T16:48:05.452Z,29.30
2022-12-11T16:53:09.539Z,26.40
2022-12-11T16:58:20.470Z,22.90
2022-12-11T17:03:24.598Z,23.10
2022-12-11T17:08:28.440Z,23.60
2022-12-11T17:13:35.968Z,25.90
2022-12-11T17:18:41.409Z,23.70
2022-12-11T17:23:45.586Z,27.90
2022-12-11T17:28:49.128Z,35.00
2022-12-11T17:33:54.796Z,24.60
2022-12-11T17:38:58.904Z,48.60
2022-12-11T17:44:02.642Z,37.10
2022-12-11T17:49:06.354Z,35.80
2022-12-11T17:54:11.889Z,35.90
2022-12-11T17:59:16.530Z,36.80
2022-12-11T18:04:21.054Z,33.80
2022-12-11T18:09:25.066Z,36.10
2022-12-11T18:14:29.994Z,36.60
2022-12-11T18:19:34.466Z,47.30
2022-12-11T18:24:38.925Z,34.10
2022-12-11T18:29:43.635Z,37.10
2022-12-11T18:34:49.852Z,39.40
2022-12-11T18:39:54.958Z,48.70
2022-12-11T18:44:59.446Z,36.60
2022-12-11T18:50:07.719Z,36.70
2022-12-11T18:55:12.490Z,45.40
2022-12-11T19:00:17.613Z,47.50
2022-12-11T19:05:21.649Z,48.30
2022-12-11T19:10:26.065Z,43.80
2022-12-11T19:15:30.819Z,26.40
2022-12-11T19:20:49.486Z,46.00
2022-12-11T19:25:55.417Z,48.90
2022-12-11T19:31:00.050Z,52.20
2022-12-11T19:36:06.763Z,54.70
2022-12-11T19:41:27.224Z,47.10
2022-12-11T19:46:31.913Z,42.70
2022-12-11T19:51:41.923Z,50.80
2022-12-11T19:56:46.926Z,39.50
2022-12-11T20:01:51.573Z,40.30
2022-12-11T20:06:55.339Z,45.90
2022-12-11T20:12:00.359Z,45.00
2022-12-11T20:17:12.445Z,41.60
2022-12-11T20:22:18.133Z,32.30
2022-12-11T20:27:21.946Z,42.10
2022-12-11T20:32:26.344Z,36.10
2022-12-11T20:37:30.746Z,34.00
2022-12-11T20:42:35.563Z,38.00
2022-12-11T20:47:39.130Z,32.00
2022-12-11T20:52:43.595Z,46.00
2022-12-11T20:57:47.990Z,28.70
2022-12-11T21:02:52.548Z,41.50
2022-12-11T21:07:58.125Z,36.70
2022-12-11T21:13:03.524Z,41.90
2022-12-11T21:18:08.450Z,38.50
2022-12-11T21:23:12.299Z,33.10
2022-12-11T21:28:17.009Z,39.00
2022-12-11T21:33:21.554Z,38.40
2022-12-11T21:38:26.909Z,33.90
2022-12-11T21:43:31.232Z,31.80
2022-12-11T21:48:35.364Z,39.10
2022-12-11T21:53:39.557Z,35.30
2022-12-11T21:58:44.407Z,30.60
2022-12-11T22:03:50.302Z,32.70
2022-12-11T22:08:54.948Z,34.80
2022-12-11T22:14:01.160Z,35.80
2022-12-11T22:19:06.502Z,30.60
2022-12-11T22:24:11.145Z,36.60
2022-12-11T22:29:16.460Z,38.60
2022-12-11T22:34:22.585Z,38.40
2022-12-11T22:39:28.582Z,28.30
2022-12-11T22:44:33.606Z,37.10
2022-12-11T22:49:38.315Z,35.60
2022-12-11T22:54:44.530Z,28.90
2022-12-11T22:59:50.213Z,30.70
2022-12-11T23:04:55.470Z,32.20
2022-12-11T23:10:00.100Z,15.20
2022-12-11T23:15:05.503Z,34.10
2022-12-11T23:20:09.707Z,29.60
2022-12-11T23:25:15.165Z,27.60
2022-12-11T23:30:20.216Z,28.90
2022-12-11T23:35:25.614Z,24.20
2022-12-11T23:40:30.542Z,28.60
2022-12-11T23:45:35.120Z,20.40
2022-12-11T23:50:41.342Z,24.70
2022-12-11T23:55:45.690Z,19.50
